createdAt,value
2018-02-15T00:00:48.651Z,101026.38
2018-02-15T00:01:54.780Z,101025.11
2018-02-15T00:03:00.657Z,101026.92
2018-02-15T00:04:06.567Z,101025.55
2018-02-15T00:05:12.743Z,101023.53
2018-02-15T00:06:18.912Z,101027.67
2018-02-15T00:07:25.125Z,101035.88
2018-02-15T00:08:31.337Z,101031.88
2018-02-15T00:09:37.560Z,101031.67
2018-02-15T00:10:43.681Z,101030.41
2018-02-15T00:11:57.886Z,101037.96
2018-02-15T00:13:03.981Z,101037.27
2018-02-15T00:14:10.158Z,101044.94
2018-02-15T00:15:16.372Z,101044.55
2018-02-15T00:16:22.627Z,101044.73
2018-02-15T00:17:29.037Z,101046.81
2018-02-15T00:18:35.267Z,101043.98
2018-02-15T00:19:41.493Z,101043.31
2018-02-15T00:20:47.629Z,101045.38
2018-02-15T00:21:53.515Z,101048.29
2018-02-15T00:22:59.666Z,101044.83
2018-02-15T00:24:05.831Z,101045.14
2018-02-15T00:25:12.091Z,101051.91
2018-02-15T00:26:18.375Z,101044.98
2018-02-15T00:27:24.811Z,101051.00
2018-02-15T00:28:30.999Z,101047.81
2018-02-15T00:29:37.225Z,101046.16
2018-02-15T00:30:48.249Z,101047.23
2018-02-15T00:31:54.432Z,101043.16
2018-02-15T00:33:00.323Z,101044.59
2018-02-15T00:34:06.145Z,101050.37
2018-02-15T00:35:12.342Z,101050.55
2018-02-15T00:36:18.467Z,101042.69
2018-02-15T00:37:24.650Z,101042.30
2018-02-15T00:38:30.851Z,101040.60
2018-02-15T00:39:36.838Z,101038.17
2018-02-15T00:40:43.050Z,101042.53
2018-02-15T00:41:49.246Z,101033.67
2018-02-15T00:42:55.134Z,101032.44
2018-02-15T00:44:01.256Z,101031.98
2018-02-15T00:45:07.500Z,101035.27
2018-02-15T00:46:13.671Z,101035.55
2018-02-15T00:47:19.884Z,101032.20
2018-02-15T00:48:26.074Z,101033.99
2018-02-15T00:49:32.270Z,101026.98
2018-02-15T00:50:38.443Z,101028.00
2018-02-15T00:51:44.603Z,101027.86
2018-02-15T00:52:50.803Z,101027.14
2018-02-15T00:53:56.652Z,101028.06
2018-02-15T00:55:02.945Z,101027.28
2018-02-15T00:56:09.283Z,101023.03
2018-02-15T00:57:15.458Z,101023.18
2018-02-15T00:58:21.695Z,101016.97
2018-02-15T00:59:27.832Z,101019.23
2018-02-15T01:00:37.011Z,101021.30
2018-02-15T01:01:43.220Z,101025.34
2018-02-15T01:02:49.368Z,101029.72
2018-02-15T01:03:55.502Z,101030.69
2018-02-15T01:05:01.407Z,101034.91
2018-02-15T01:06:07.644Z,101030.19
2018-02-15T01:07:16.446Z,101033.14
2018-02-15T01:08:22.700Z,101032.26
2018-02-15T01:09:28.903Z,101025.55
2018-02-15T01:10:35.147Z,101022.17
2018-02-15T01:11:40.990Z,101023.05
2018-02-15T01:12:47.144Z,101022.78
2018-02-15T01:13:53.313Z,101019.82
2018-02-15T01:14:59.438Z,101023.81
2018-02-15T01:16:10.099Z,101023.98
2018-02-15T01:17:16.059Z,101020.19
2018-02-15T01:18:22.261Z,101021.82
2018-02-15T01:19:28.472Z,101014.45
2018-02-15T01:20:34.656Z,101017.46
2018-02-15T01:21:40.899Z,101020.05
2018-02-15T01:22:47.128Z,101018.59
2018-02-15T01:23:53.335Z,101017.78
2018-02-15T01:24:59.471Z,101019.95
2018-02-15T01:26:06.086Z,101020.81
2018-02-15T01:27:13.506Z,101024.88
2018-02-15T01:28:19.684Z,101021.31
2018-02-15T01:29:25.695Z,101017.38
2018-02-15T01:30:31.818Z,101016.09
2018-02-15T01:31:38.000Z,101015.10
2018-02-15T01:32:44.190Z,101016.81
2018-02-15T01:33:50.330Z,101009.19
2018-02-15T01:34:56.205Z,101016.56
2018-02-15T01:36:02.443Z,101011.06
2018-02-15T01:37:09.557Z,101005.45
2018-02-15T01:38:15.714Z,101004.45
2018-02-15T01:39:21.850Z,101006.53
2018-02-15T01:40:28.162Z,101009.20
2018-02-15T01:41:34.447Z,101007.34
2018-02-15T01:42:40.659Z,101010.73
2018-02-15T01:43:46.873Z,101007.99
2018-02-15T01:44:53.040Z,101013.88
2018-02-15T01:45:59.278Z,101014.95
2018-02-15T01:47:05.465Z,101011.84
2018-02-15T01:48:11.680Z,101015.56
2018-02-15T01:49:17.868Z,101015.14
2018-02-15T01:50:24.095Z,101013.81
2018-02-15T01:51:30.358Z,101012.44
2018-02-15T01:52:36.744Z,101008.01
2018-02-15T01:53:42.878Z,101008.80
2018-02-15T01:54:49.092Z,101008.78
2018-02-15T01:55:56.083Z,101011.16
2018-02-15T01:57:02.262Z,101010.66
2018-02-15T01:58:08.405Z,101011.16
2018-02-15T01:59:14.602Z,101017.55
2018-02-15T02:00:20.787Z,101012.84
2018-02-15T02:01:25.694Z,101010.37
2018-02-15T02:02:31.917Z,101011.50
2018-02-15T02:03:38.090Z,101013.25
2018-02-15T02:04:44.281Z,101011.00
2018-02-15T02:05:50.456Z,101013.42
2018-02-15T02:06:56.623Z,101011.89
2018-02-15T02:08:02.791Z,101013.75
2018-02-15T02:09:08.992Z,101007.63
2018-02-15T02:10:16.082Z,101006.56
2018-02-15T02:11:22.255Z,101010.58
2018-02-15T02:12:28.403Z,101012.72
2018-02-15T02:13:34.548Z,101011.84
2018-02-15T02:14:40.712Z,101016.25
2018-02-15T02:15:46.897Z,101009.90
2018-02-15T02:16:53.108Z,101008.94
2018-02-15T02:17:59.272Z,101005.55
2018-02-15T02:19:05.463Z,101005.55
2018-02-15T02:20:11.659Z,101003.10
2018-02-15T02:21:17.848Z,101000.53
2018-02-15T02:22:23.796Z,100998.33
2018-02-15T02:23:29.997Z,100998.13
2018-02-15T02:24:36.158Z,100995.24
2018-02-15T02:25:42.392Z,100999.37
2018-02-15T02:26:48.557Z,100997.63
2018-02-15T02:27:54.778Z,101003.21
2018-02-15T02:29:00.917Z,100991.28
2018-02-15T02:30:07.165Z,100992.95
2018-02-15T02:31:13.379Z,100986.89
2018-02-15T02:32:19.699Z,100994.78
2018-02-15T02:33:25.869Z,100991.78
2018-02-15T02:34:32.062Z,100986.61
2018-02-15T02:35:38.285Z,100988.72
2018-02-15T02:36:44.490Z,100990.80
2018-02-15T02:37:50.749Z,100987.05
2018-02-15T02:38:56.900Z,100981.92
2018-02-15T02:40:03.092Z,100984.19
2018-02-15T02:41:09.343Z,100978.83
2018-02-15T02:42:15.500Z,100981.45
2018-02-15T02:43:22.380Z,100976.22
2018-02-15T02:44:28.535Z,100975.91
2018-02-15T02:45:34.761Z,100976.95
2018-02-15T02:46:40.951Z,100975.01
2018-02-15T02:47:47.122Z,100974.05
2018-02-15T02:48:53.640Z,100972.41
2018-02-15T02:49:59.787Z,100975.83
2018-02-15T02:51:05.958Z,100978.48
2018-02-15T02:52:12.109Z,100974.94
2018-02-15T02:53:18.284Z,100972.77
2018-02-15T02:54:24.471Z,100975.50
2018-02-15T02:55:30.633Z,100970.28
2018-02-15T02:56:36.887Z,100967.45
2018-02-15T02:57:43.049Z,100970.16
2018-02-15T02:58:49.254Z,100956.63
2018-02-15T02:59:55.476Z,100956.02
2018-02-15T03:01:02.656Z,100953.26
2018-02-15T03:02:08.865Z,100949.51
2018-02-15T03:03:15.106Z,100952.92
2018-02-15T03:04:21.269Z,100944.72
2018-02-15T03:05:27.383Z,100943.55
2018-02-15T03:06:33.554Z,100944.92
2018-02-15T03:07:39.792Z,100933.22
2018-02-15T03:08:45.353Z,100928.59
2018-02-15T03:09:51.581Z,100935.45
2018-02-15T03:10:58.245Z,100932.98
2018-02-15T03:12:04.432Z,100931.92
2018-02-15T03:13:10.624Z,100936.75
2018-02-15T03:14:16.810Z,100932.03
2018-02-15T03:15:23.004Z,100931.40
2018-02-15T03:16:29.177Z,100935.33
2018-02-15T03:17:35.366Z,100936.68
2018-02-15T03:18:41.734Z,100930.00
2018-02-15T03:19:47.900Z,100930.94
2018-02-15T03:20:54.046Z,100928.11
2018-02-15T03:22:00.239Z,100927.28
2018-02-15T03:23:06.474Z,100925.14
2018-02-15T03:24:12.642Z,100917.05
2018-02-15T03:25:21.894Z,100917.41
2018-02-15T03:26:28.101Z,100920.97
2018-02-15T03:27:39.015Z,100918.09
2018-02-15T03:28:45.177Z,100926.73
2018-02-15T03:29:51.366Z,100925.45
2018-02-15T03:30:57.543Z,100923.86
2018-02-15T03:32:03.727Z,100931.52
2018-02-15T03:33:09.969Z,100926.71
2018-02-15T03:34:16.141Z,100931.23
2018-02-15T03:35:22.322Z,100940.75
2018-02-15T03:36:28.529Z,100948.72
2018-02-15T03:37:34.769Z,100944.61
2018-02-15T03:38:41.031Z,100945.63
2018-02-15T03:39:47.296Z,100959.25
2018-02-15T03:40:53.221Z,100963.47
2018-02-15T03:41:59.395Z,100962.98
2018-02-15T03:43:05.634Z,100962.95
2018-02-15T03:44:11.941Z,100959.52
2018-02-15T03:45:18.108Z,100957.16
2018-02-15T03:46:24.321Z,100949.55
2018-02-15T03:47:30.454Z,100943.31
2018-02-15T03:48:36.739Z,100943.97
2018-02-15T03:49:42.650Z,100936.33
2018-02-15T03:50:48.843Z,100937.52
2018-02-15T03:51:55.037Z,100934.34
2018-02-15T03:53:01.194Z,100938.34
2018-02-15T03:54:07.394Z,100937.14
2018-02-15T03:55:13.604Z,100933.91
2018-02-15T03:56:19.838Z,100931.25
2018-02-15T03:57:26.002Z,100932.55
2018-02-15T03:58:32.188Z,100931.85
2018-02-15T03:59:38.464Z,100929.71
2018-02-15T04:00:44.682Z,100932.44
2018-02-15T04:01:50.916Z,100936.70
2018-02-15T04:02:57.162Z,100935.45
2018-02-15T04:04:03.325Z,100937.02
2018-02-15T04:05:09.601Z,100931.13
2018-02-15T04:06:19.862Z,100931.59
2018-02-15T04:07:26.077Z,100931.40
2018-02-15T04:08:36.877Z,100927.91
2018-02-15T04:09:43.144Z,100933.96
2018-02-15T04:10:49.352Z,100932.76
2018-02-15T04:11:55.572Z,100935.31
2018-02-15T04:13:01.726Z,100936.23
2018-02-15T04:14:07.873Z,100939.09
2018-02-15T04:15:13.574Z,100936.62
2018-02-15T04:16:19.798Z,100935.49
2018-02-15T04:17:26.055Z,100936.00
2018-02-15T04:18:32.295Z,100937.21
2018-02-15T04:19:38.240Z,100938.53
2018-02-15T04:20:44.432Z,100927.39
2018-02-15T04:21:50.605Z,100927.76
2018-02-15T04:22:57.024Z,100923.06
2018-02-15T04:24:03.292Z,100922.25
2018-02-15T04:25:09.489Z,100915.42
2018-02-15T04:26:15.718Z,100913.33
2018-02-15T04:27:21.970Z,100912.02
2018-02-15T04:28:28.425Z,100910.34
2018-02-15T04:29:34.691Z,100911.23
2018-02-15T04:30:40.929Z,100913.31
2018-02-15T04:31:47.168Z,100915.59
2018-02-15T04:32:53.546Z,100919.47
2018-02-15T04:33:59.816Z,100919.89
2018-02-15T04:35:05.988Z,100922.94
2018-02-15T04:36:12.131Z,100919.14
2018-02-15T04:37:18.279Z,100917.48
2018-02-15T04:38:24.440Z,100923.00
2018-02-15T04:39:30.700Z,100908.45
2018-02-15T04:40:39.899Z,100910.69
2018-02-15T04:41:46.344Z,100904.59
2018-02-15T04:42:52.581Z,100907.21
2018-02-15T04:43:59.360Z,100902.02
2018-02-15T04:45:05.633Z,100907.25
2018-02-15T04:46:12.057Z,100907.21
2018-02-15T04:47:18.428Z,100911.95
2018-02-15T04:48:26.218Z,100913.31
2018-02-15T04:49:32.475Z,100909.47
2018-02-15T04:50:39.834Z,100904.83
2018-02-15T04:51:47.259Z,100905.65
2018-02-15T04:52:55.036Z,100897.50
2018-02-15T04:54:01.846Z,100897.48
2018-02-15T04:55:09.370Z,100894.55
2018-02-15T04:56:16.814Z,100891.10
2018-02-15T04:57:23.935Z,100884.61
2018-02-15T04:58:31.734Z,100885.85
2018-02-15T04:59:40.987Z,100888.92
2018-02-15T05:00:51.827Z,100888.42
2018-02-15T05:02:00.930Z,100883.23
2018-02-15T05:03:09.788Z,100882.36
2018-02-15T05:04:17.077Z,100886.66
2018-02-15T05:05:24.218Z,100878.14
2018-02-15T05:06:32.877Z,100884.52
2018-02-15T05:07:40.193Z,100875.66
2018-02-15T05:08:49.117Z,100874.28
2018-02-15T05:09:56.978Z,100879.28
2018-02-15T05:11:06.503Z,100872.50
2018-02-15T05:12:14.339Z,100875.09
2018-02-15T05:13:22.083Z,100874.31
2018-02-15T05:14:31.206Z,100878.66
2018-02-15T05:15:38.002Z,100880.78
2018-02-15T05:16:44.256Z,100879.92
2018-02-15T05:17:50.459Z,100878.27
2018-02-15T05:18:56.690Z,100880.41
2018-02-15T05:20:02.980Z,100882.59
2018-02-15T05:21:08.946Z,100880.91
2018-02-15T05:22:15.182Z,100880.52
2018-02-15T05:23:21.356Z,100879.66
2018-02-15T05:24:27.649Z,100881.80
2018-02-15T05:25:33.915Z,100881.40
2018-02-15T05:26:40.168Z,100883.17
2018-02-15T05:27:46.437Z,100882.30
2018-02-15T05:28:52.382Z,100879.25
2018-02-15T05:29:58.557Z,100883.63
2018-02-15T05:31:04.735Z,100882.80
2018-02-15T05:32:10.962Z,100881.56
2018-02-15T05:33:17.229Z,100884.09
2018-02-15T05:34:23.417Z,100886.64
2018-02-15T05:35:29.544Z,100894.78
2018-02-15T05:36:35.687Z,100889.69
2018-02-15T05:37:41.928Z,100888.88
2018-02-15T05:38:48.140Z,100885.05
2018-02-15T05:39:54.309Z,100884.68
2018-02-15T05:41:00.537Z,100878.13
2018-02-15T05:42:06.855Z,100882.02
2018-02-15T05:43:13.072Z,100885.03
2018-02-15T05:44:19.344Z,100882.84
2018-02-15T05:45:25.230Z,100881.56
2018-02-15T05:46:31.383Z,100878.55
2018-02-15T05:47:37.349Z,100882.95
2018-02-15T05:48:43.618Z,100879.56
2018-02-15T05:49:49.835Z,100884.69
2018-02-15T05:50:56.020Z,100884.71
2018-02-15T05:52:02.398Z,100885.95
2018-02-15T05:53:08.649Z,100884.25
2018-02-15T05:54:14.876Z,100881.64
2018-02-15T05:55:21.090Z,100882.05
2018-02-15T05:56:27.387Z,100887.63
2018-02-15T05:57:39.704Z,100883.36
2018-02-15T05:58:45.912Z,100890.66
2018-02-15T05:59:52.246Z,100893.20
2018-02-15T06:00:58.419Z,100892.44
2018-02-15T06:02:04.650Z,100895.06
2018-02-15T06:03:13.322Z,100893.79
2018-02-15T06:04:19.532Z,100898.42
2018-02-15T06:05:25.667Z,100898.05
2018-02-15T06:06:31.842Z,100897.58
2018-02-15T06:07:37.998Z,100895.48
2018-02-15T06:08:44.287Z,100905.38
2018-02-15T06:09:50.491Z,100894.19
2018-02-15T06:10:56.733Z,100893.84
2018-02-15T06:12:02.941Z,100898.55
2018-02-15T06:13:09.193Z,100899.83
2018-02-15T06:14:14.991Z,100902.42
2018-02-15T06:15:21.310Z,100902.02
2018-02-15T06:16:27.173Z,100902.92
2018-02-15T06:17:33.356Z,100902.02
2018-02-15T06:18:39.585Z,100899.48
2018-02-15T06:19:45.784Z,100898.66
2018-02-15T06:20:52.004Z,100905.50
2018-02-15T06:21:58.220Z,100902.16
2018-02-15T06:23:04.522Z,100897.39
2018-02-15T06:24:10.654Z,100901.64
2018-02-15T06:25:16.821Z,100901.29
2018-02-15T06:26:23.043Z,100898.33
2018-02-15T06:27:29.246Z,100896.14
2018-02-15T06:28:35.414Z,100900.00
2018-02-15T06:29:41.680Z,100901.73
2018-02-15T06:30:57.464Z,100896.14
2018-02-15T06:32:03.663Z,100898.72
2018-02-15T06:33:09.857Z,100898.76
2018-02-15T06:34:16.035Z,100897.50
2018-02-15T06:35:22.194Z,100904.28
2018-02-15T06:36:28.376Z,100907.33
2018-02-15T06:37:34.531Z,100902.24
2018-02-15T06:38:40.939Z,100899.70
2018-02-15T06:39:47.093Z,100904.41
2018-02-15T06:40:53.269Z,100903.16
2018-02-15T06:41:59.445Z,100898.42
2018-02-15T06:43:05.652Z,100898.02
2018-02-15T06:44:11.857Z,100896.77
2018-02-15T06:45:18.076Z,100899.03
2018-02-15T06:46:24.232Z,100904.63
2018-02-15T06:47:30.461Z,100899.88
2018-02-15T06:48:36.624Z,100904.61
2018-02-15T06:49:42.884Z,100910.30
2018-02-15T06:50:49.329Z,100904.40
2018-02-15T06:52:01.333Z,100903.08
2018-02-15T06:53:07.551Z,100906.99
2018-02-15T06:54:13.717Z,100900.55
2018-02-15T06:55:19.855Z,100906.14
2018-02-15T06:56:31.072Z,100904.84
2018-02-15T06:57:38.189Z,100905.94
2018-02-15T06:58:49.808Z,100899.88
2018-02-15T06:59:57.172Z,100902.04
2018-02-15T07:01:04.749Z,100897.78
2018-02-15T07:02:16.220Z,100891.79
2018-02-15T07:03:27.845Z,100887.13
2018-02-15T07:04:35.085Z,100881.13
2018-02-15T07:05:43.356Z,100875.86
2018-02-15T07:06:51.093Z,100878.84
2018-02-15T07:07:58.216Z,100881.82
2018-02-15T07:09:06.001Z,100883.11
2018-02-15T07:10:13.819Z,100875.39
2018-02-15T07:11:22.946Z,100871.06
2018-02-15T07:12:31.543Z,100869.30
2018-02-15T07:13:39.677Z,100861.27
2018-02-15T07:14:46.869Z,100857.77
2018-02-15T07:15:54.090Z,100854.86
2018-02-15T07:17:03.458Z,100851.92
2018-02-15T07:18:12.004Z,100848.88
2018-02-15T07:19:20.841Z,100850.17
2018-02-15T07:20:28.866Z,100850.55
2018-02-15T07:21:36.157Z,100852.30
2018-02-15T07:22:47.169Z,100851.93
2018-02-15T07:23:56.695Z,100852.84
2018-02-15T07:25:03.737Z,100850.20
2018-02-15T07:26:11.352Z,100855.80
2018-02-15T07:27:19.091Z,100859.72
2018-02-15T07:28:26.790Z,100848.98
2018-02-15T07:29:34.035Z,100849.36
2018-02-15T07:30:42.440Z,100849.36
2018-02-15T07:31:51.314Z,100846.37
2018-02-15T07:32:59.561Z,100843.37
2018-02-15T07:34:08.752Z,100848.11
2018-02-15T07:35:15.984Z,100846.41
2018-02-15T07:36:24.015Z,100853.21
2018-02-15T07:37:32.398Z,100853.25
2018-02-15T07:38:39.498Z,100850.66
2018-02-15T07:39:46.541Z,100848.58
2018-02-15T07:40:55.302Z,100843.85
2018-02-15T07:42:02.546Z,100849.84
2018-02-15T07:43:09.915Z,100840.84
2018-02-15T07:44:17.380Z,100838.77
2018-02-15T07:45:24.485Z,100831.95
2018-02-15T07:46:31.258Z,100844.00
2018-02-15T07:47:37.256Z,100837.64
2018-02-15T07:48:43.273Z,100839.83
2018-02-15T07:49:49.328Z,100836.48
2018-02-15T07:50:55.312Z,100838.20
2018-02-15T07:52:01.396Z,100828.42
2018-02-15T07:53:10.699Z,100825.47
2018-02-15T07:54:16.691Z,100831.58
2018-02-15T07:55:22.681Z,100836.27
2018-02-15T07:56:28.620Z,100833.37
2018-02-15T07:57:34.557Z,100837.75
2018-02-15T07:58:40.579Z,100838.66
2018-02-15T07:59:46.692Z,100834.86
2018-02-15T08:00:52.907Z,100831.47
2018-02-15T08:01:59.157Z,100842.27
2018-02-15T08:03:05.334Z,100835.02
2018-02-15T08:04:11.528Z,100840.63
2018-02-15T08:05:17.718Z,100840.21
2018-02-15T08:06:26.741Z,100841.17
2018-02-15T08:07:32.924Z,100848.86
2018-02-15T08:08:39.147Z,100844.23
2018-02-15T08:09:45.349Z,100844.33
2018-02-15T08:10:51.523Z,100845.55
2018-02-15T08:11:57.724Z,100845.47
2018-02-15T08:13:03.892Z,100837.28
2018-02-15T08:14:10.118Z,100837.33
2018-02-15T08:15:16.335Z,100839.91
2018-02-15T08:16:22.510Z,100836.50
2018-02-15T08:17:28.672Z,100840.80
2018-02-15T08:18:34.857Z,100844.70
2018-02-15T08:19:40.870Z,100838.74
2018-02-15T08:20:47.099Z,100840.03
2018-02-15T08:21:53.337Z,100834.41
2018-02-15T08:22:59.523Z,100831.41
2018-02-15T08:24:05.689Z,100833.59
2018-02-15T08:25:11.602Z,100830.13
2018-02-15T08:26:17.756Z,100830.14
2018-02-15T08:27:23.929Z,100824.13
2018-02-15T08:28:30.167Z,100823.75
2018-02-15T08:29:36.348Z,100820.78
2018-02-15T08:30:47.560Z,100825.98
2018-02-15T08:31:53.756Z,100820.39
2018-02-15T08:32:59.950Z,100828.95
2018-02-15T08:34:06.138Z,100829.83
2018-02-15T08:35:12.276Z,100823.87
2018-02-15T08:36:18.467Z,100820.03
2018-02-15T08:37:24.624Z,100822.24
2018-02-15T08:38:30.802Z,100815.36
2018-02-15T08:39:36.990Z,100812.78
2018-02-15T08:40:43.163Z,100807.59
2018-02-15T08:41:49.383Z,100810.66
2018-02-15T08:42:55.574Z,100805.52
2018-02-15T08:44:01.761Z,100812.81
2018-02-15T08:45:07.919Z,100812.83
2018-02-15T08:46:14.221Z,100817.08
2018-02-15T08:47:20.387Z,100808.50
2018-02-15T08:48:26.638Z,100804.19
2018-02-15T08:49:32.771Z,100803.37
2018-02-15T08:50:38.995Z,100804.63
2018-02-15T08:51:45.181Z,100802.50
2018-02-15T08:52:51.333Z,100804.20
2018-02-15T08:53:57.539Z,100809.39
2018-02-15T08:55:03.732Z,100805.11
2018-02-15T08:56:09.938Z,100802.16
2018-02-15T08:57:16.074Z,100803.03
2018-02-15T08:58:22.263Z,100809.92
2018-02-15T08:59:28.415Z,100804.79
2018-02-15T09:00:34.649Z,100807.41
2018-02-15T09:01:40.855Z,100806.08
2018-02-15T09:02:46.829Z,100804.00
2018-02-15T09:03:53.423Z,100806.48
2018-02-15T09:04:59.620Z,100803.52
2018-02-15T09:06:05.778Z,100795.83
2018-02-15T09:07:11.883Z,100798.83
2018-02-15T09:08:18.024Z,100794.94
2018-02-15T09:09:23.939Z,100801.41
2018-02-15T09:10:30.672Z,100791.97
2018-02-15T09:11:36.820Z,100801.03
2018-02-15T09:12:43.081Z,100797.56
2018-02-15T09:13:49.259Z,100794.62
2018-02-15T09:14:55.395Z,100792.91
2018-02-15T09:16:01.589Z,100793.75
2018-02-15T09:17:07.750Z,100800.20
2018-02-15T09:18:13.928Z,100787.34
2018-02-15T09:19:20.072Z,100788.66
2018-02-15T09:20:31.471Z,100790.37
2018-02-15T09:21:37.640Z,100789.94
2018-02-15T09:22:43.851Z,100786.52
2018-02-15T09:23:50.004Z,100783.09
2018-02-15T09:24:56.181Z,100777.95
2018-02-15T09:26:02.379Z,100769.31
2018-02-15T09:27:08.621Z,100769.74
2018-02-15T09:28:17.762Z,100766.76
2018-02-15T09:29:23.958Z,100766.73
2018-02-15T09:30:30.144Z,100769.74
2018-02-15T09:31:36.294Z,100774.08
2018-02-15T09:32:42.463Z,100772.37
2018-02-15T09:33:48.650Z,100770.26
2018-02-15T09:34:54.918Z,100768.55
2018-02-15T09:36:01.132Z,100771.52
2018-02-15T09:37:07.022Z,100769.35
2018-02-15T09:38:13.172Z,100771.50
2018-02-15T09:39:19.448Z,100765.03
2018-02-15T09:40:25.589Z,100770.19
2018-02-15T09:41:40.181Z,100764.16
2018-02-15T09:42:46.735Z,100768.06
2018-02-15T09:43:52.934Z,100770.69
2018-02-15T09:44:59.138Z,100771.97
2018-02-15T09:46:05.366Z,100776.72
2018-02-15T09:47:11.492Z,100776.73
2018-02-15T09:48:17.395Z,100775.44
2018-02-15T09:49:23.317Z,100782.77
2018-02-15T09:50:31.500Z,100775.89
2018-02-15T09:51:37.645Z,100774.61
2018-02-15T09:52:43.772Z,100778.44
2018-02-15T09:53:49.662Z,100774.16
2018-02-15T09:54:55.781Z,100772.87
2018-02-15T09:56:02.014Z,100773.70
2018-02-15T09:57:08.946Z,100771.15
2018-02-15T09:58:15.116Z,100768.18
2018-02-15T09:59:21.299Z,100760.44
2018-02-15T10:00:27.454Z,100767.73
2018-02-15T10:01:33.610Z,100767.33
2018-02-15T10:02:39.739Z,100770.34
2018-02-15T10:03:45.978Z,100773.34
2018-02-15T10:04:52.141Z,100766.03
2018-02-15T10:05:58.326Z,100771.19
2018-02-15T10:07:04.466Z,100767.33
2018-02-15T10:08:10.691Z,100771.22
2018-02-15T10:09:16.832Z,100779.39
2018-02-15T10:10:23.038Z,100778.12
2018-02-15T10:11:28.966Z,100778.10
2018-02-15T10:12:35.188Z,100786.31
2018-02-15T10:13:41.605Z,100788.88
2018-02-15T10:14:47.832Z,100786.73
2018-02-15T10:15:53.774Z,100784.59
2018-02-15T10:16:59.761Z,100783.70
2018-02-15T10:18:06.057Z,100783.70
2018-02-15T10:19:12.214Z,100781.55
2018-02-15T10:20:18.763Z,100782.41
2018-02-15T10:21:24.960Z,100781.11
2018-02-15T10:22:31.108Z,100785.45
2018-02-15T10:23:37.291Z,100784.99
2018-02-15T10:24:43.460Z,100787.15
2018-02-15T10:25:49.643Z,100782.01
2018-02-15T10:26:55.797Z,100776.37
2018-02-15T10:28:01.977Z,100775.97
2018-02-15T10:29:08.157Z,100780.27
2018-02-15T10:30:14.291Z,100777.25
2018-02-15T10:31:20.881Z,100775.11
2018-02-15T10:32:26.833Z,100770.34
2018-02-15T10:33:32.995Z,100769.06
2018-02-15T10:34:39.116Z,100755.29
2018-02-15T10:35:45.247Z,100760.87
2018-02-15T10:36:51.435Z,100755.72
2018-02-15T10:37:57.591Z,100750.98
2018-02-15T10:39:03.228Z,100750.10
2018-02-15T10:40:09.075Z,100744.92
2018-02-15T10:41:15.255Z,100747.50
2018-02-15T10:42:21.439Z,100745.79
2018-02-15T10:43:27.632Z,100743.22
2018-02-15T10:44:33.808Z,100743.65
2018-02-15T10:45:39.911Z,100741.48
2018-02-15T10:46:46.107Z,100736.77
2018-02-15T10:47:53.136Z,100736.77
2018-02-15T10:48:59.500Z,100738.48
2018-02-15T10:50:05.660Z,100738.48
2018-02-15T10:51:11.860Z,100740.63
2018-02-15T10:52:18.101Z,100741.06
2018-02-15T10:53:24.276Z,100739.78
2018-02-15T10:54:30.452Z,100734.17
2018-02-15T10:55:36.656Z,100739.78
2018-02-15T10:56:42.820Z,100735.87
2018-02-15T10:57:48.929Z,100730.73
2018-02-15T10:58:54.690Z,100729.43
2018-02-15T11:00:00.712Z,100726.39
2018-02-15T11:01:12.039Z,100719.94
2018-02-15T11:02:23.124Z,100718.65
2018-02-15T11:03:30.063Z,100714.30
2018-02-15T11:04:36.100Z,100714.32
2018-02-15T11:05:42.304Z,100709.13
2018-02-15T11:06:48.556Z,100710.86
2018-02-15T11:07:54.751Z,100714.33
2018-02-15T11:09:01.001Z,100708.72
2018-02-15T11:10:07.220Z,100709.16
2018-02-15T11:11:13.631Z,100706.97
2018-02-15T11:12:19.891Z,100703.11
2018-02-15T11:13:26.278Z,100704.83
2018-02-15T11:14:32.487Z,100704.80
2018-02-15T11:15:39.317Z,100700.52
2018-02-15T11:16:45.985Z,100697.52
2018-02-15T11:17:52.404Z,100689.76
2018-02-15T11:18:59.884Z,100695.75
2018-02-15T11:20:06.366Z,100686.27
2018-02-15T11:21:12.918Z,100691.03
2018-02-15T11:22:21.581Z,100689.30
2018-02-15T11:23:29.286Z,100690.16
2018-02-15T11:24:37.823Z,100688.85
2018-02-15T11:25:45.699Z,100683.25
2018-02-15T11:26:52.868Z,100682.79
2018-02-15T11:28:00.450Z,100684.54
2018-02-15T11:29:08.515Z,100690.98
2018-02-15T11:30:15.861Z,100691.36
2018-02-15T11:31:23.434Z,100683.14
2018-02-15T11:32:31.712Z,100685.72
2018-02-15T11:33:38.572Z,100687.87
2018-02-15T11:34:45.471Z,100680.94
2018-02-15T11:35:52.387Z,100681.00
2018-02-15T11:37:02.244Z,100678.84
2018-02-15T11:38:09.654Z,100677.54
2018-02-15T11:39:17.449Z,100671.09
2018-02-15T11:40:24.125Z,100667.22
2018-02-15T11:41:30.803Z,100677.97
2018-02-15T11:42:38.779Z,100671.52
2018-02-15T11:43:46.672Z,100668.46
2018-02-15T11:44:53.726Z,100668.84
2018-02-15T11:46:01.000Z,100669.69
2018-02-15T11:47:08.127Z,100673.16
2018-02-15T11:48:16.096Z,100666.69
2018-02-15T11:49:23.870Z,100666.29
2018-02-15T11:50:31.426Z,100669.70
2018-02-15T11:51:40.287Z,100668.41
2018-02-15T11:52:47.301Z,100673.14
2018-02-15T11:53:55.278Z,100672.66
2018-02-15T11:55:02.298Z,100664.41
2018-02-15T11:56:09.879Z,100667.92
2018-02-15T11:57:17.772Z,100662.31
2018-02-15T11:58:25.183Z,100661.87
2018-02-15T11:59:32.813Z,100664.52
2018-02-15T12:00:40.406Z,100660.63
2018-02-15T12:01:47.938Z,100659.75
2018-02-15T12:02:55.400Z,100661.88
2018-02-15T12:04:02.023Z,100658.45
2018-02-15T12:05:09.612Z,100660.17
2018-02-15T12:06:17.418Z,100658.87
2018-02-15T12:07:25.783Z,100655.33
2018-02-15T12:08:34.071Z,100659.28
2018-02-15T12:09:42.447Z,100666.16
2018-02-15T12:10:51.358Z,100661.40
2018-02-15T12:11:58.348Z,100650.61
2018-02-15T12:13:06.701Z,100658.81
2018-02-15T12:14:25.076Z,100651.44
2018-02-15T12:15:33.379Z,100646.27
2018-02-15T12:16:41.074Z,100642.38
2018-02-15T12:18:54.831Z,100638.02
2018-02-15T12:20:01.625Z,100639.70
2018-02-15T12:21:09.009Z,100638.36
2018-02-15T12:22:17.499Z,100631.45
2018-02-15T12:23:29.547Z,100630.23
2018-02-15T12:24:37.803Z,100625.53
2018-02-15T12:25:45.114Z,100626.39
2018-02-15T12:26:52.834Z,100625.91
2018-02-15T12:28:02.013Z,100617.30
2018-02-15T12:29:09.862Z,100616.37
2018-02-15T12:30:21.218Z,100614.19
2018-02-15T12:31:34.774Z,100617.20
2018-02-15T12:32:44.680Z,100611.14
2018-02-15T12:33:53.503Z,100607.27
2018-02-15T12:35:01.667Z,100606.41
2018-02-15T12:36:09.627Z,100605.61
2018-02-15T12:37:16.279Z,100607.71
2018-02-15T12:38:23.432Z,100602.96
2018-02-15T12:39:31.190Z,100601.63
2018-02-15T12:40:39.199Z,100597.75
2018-02-15T12:41:47.089Z,100589.95
2018-02-15T12:42:55.198Z,100601.67